createdAt,value
2023-03-06T00:01:20.901Z,2.20
2023-03-06T00:03:52.841Z,2.20
2023-03-06T00:06:24.272Z,2.35
2023-03-06T00:08:55.750Z,2.35
2023-03-06T00:11:30.680Z,2.50
2023-03-06T00:14:02.177Z,2.72
2023-03-06T00:16:33.792Z,3.10
2023-03-06T00:19:05.259Z,2.67
2023-03-06T00:21:36.710Z,3.05
2023-03-06T00:24:08.243Z,2.67
2023-03-06T00:26:39.661Z,2.20
2023-03-06T00:29:11.114Z,1.00
2023-03-06T00:31:42.570Z,0.90
2023-03-06T00:34:14.505Z,0.70
2023-03-06T00:36:45.957Z,0.65
2023-03-06T00:39:17.457Z,0.80
2023-03-06T00:41:48.881Z,0.65
2023-03-06T00:44:20.313Z,0.90
2023-03-06T00:46:51.755Z,0.63
2023-03-06T00:49:23.200Z,0.70
2023-03-06T00:51:54.618Z,0.63
2023-03-06T00:54:26.046Z,0.63
2023-03-06T00:56:57.514Z,0.40
2023-03-06T00:59:28.936Z,0.73
2023-03-06T01:02:00.463Z,0.60
2023-03-06T01:04:32.658Z,0.67
2023-03-06T01:07:04.277Z,0.50
2023-03-06T01:09:35.735Z,0.50
2023-03-06T01:12:07.606Z,0.60
2023-03-06T01:14:39.040Z,0.47
2023-03-06T01:17:10.563Z,0.50
2023-03-06T01:19:42.100Z,0.40
2023-03-06T01:22:13.632Z,0.60
2023-03-06T01:24:45.089Z,0.40
2023-03-06T01:27:16.503Z,0.50
2023-03-06T01:29:47.953Z,0.73
2023-03-06T01:32:19.383Z,0.47
2023-03-06T01:34:50.825Z,0.50
2023-03-06T01:37:22.297Z,0.65
2023-03-06T01:39:53.774Z,0.70
2023-03-06T01:42:25.300Z,0.60
2023-03-06T01:45:02.626Z,0.70
2023-03-06T01:47:34.171Z,0.70
2023-03-06T01:50:09.118Z,0.70
2023-03-06T01:52:52.028Z,0.73
2023-03-06T01:55:30.817Z,0.50
2023-03-06T01:58:07.384Z,0.80
2023-03-06T02:00:38.991Z,0.75
2023-03-06T02:03:14.799Z,1.02
2023-03-06T02:05:46.373Z,0.80
2023-03-06T02:08:20.965Z,0.87
2023-03-06T02:11:06.410Z,0.90
2023-03-06T02:13:39.095Z,0.90
2023-03-06T02:16:12.507Z,0.90
2023-03-06T02:18:45.999Z,1.00
2023-03-06T02:21:25.492Z,1.13
2023-03-06T02:24:21.266Z,0.95
2023-03-06T02:26:53.696Z,1.00
2023-03-06T02:29:28.326Z,1.38
2023-03-06T02:31:59.875Z,1.10
2023-03-06T02:34:37.300Z,1.00
2023-03-06T02:37:10.508Z,1.20
2023-03-06T02:39:46.858Z,1.20
2023-03-06T02:42:20.773Z,1.00
2023-03-06T02:44:54.263Z,0.90
2023-03-06T02:47:25.738Z,1.00
2023-03-06T02:49:57.183Z,0.90
2023-03-06T02:52:28.639Z,1.33
2023-03-06T02:55:00.108Z,1.02
2023-03-06T02:57:31.608Z,1.02
2023-03-06T03:00:03.400Z,1.10
2023-03-06T03:02:34.906Z,1.00
2023-03-06T03:05:06.711Z,0.90
2023-03-06T03:07:38.157Z,0.77
2023-03-06T03:10:10.396Z,1.00
2023-03-06T03:12:42.263Z,1.20
2023-03-06T03:15:13.898Z,0.80
2023-03-06T03:17:45.353Z,0.73
2023-03-06T03:20:19.762Z,0.82
2023-03-06T03:22:53.903Z,0.70
2023-03-06T03:25:26.109Z,0.98
2023-03-06T03:27:57.638Z,0.63
2023-03-06T03:30:29.079Z,0.73
2023-03-06T03:33:00.560Z,0.95
2023-03-06T03:35:32.083Z,0.60
2023-03-06T03:38:03.758Z,0.65
2023-03-06T03:40:35.233Z,1.17
2023-03-06T03:43:06.988Z,0.85
2023-03-06T03:45:39.919Z,0.77
2023-03-06T03:48:11.462Z,0.70
2023-03-06T03:50:42.901Z,1.10
2023-03-06T03:53:14.490Z,0.80
2023-03-06T03:55:49.494Z,1.05
2023-03-06T03:58:20.967Z,0.77
2023-03-06T04:00:52.458Z,0.90
2023-03-06T04:03:23.930Z,0.93
2023-03-06T04:05:55.707Z,0.90
2023-03-06T04:08:28.196Z,0.80
2023-03-06T04:10:59.688Z,1.05
2023-03-06T04:13:31.123Z,0.82
2023-03-06T04:16:02.862Z,1.30
2023-03-06T04:18:34.370Z,1.20
2023-03-06T04:21:06.093Z,1.40
2023-03-06T04:23:37.511Z,1.17
2023-03-06T04:26:09.999Z,1.33
2023-03-06T04:28:41.411Z,1.33
2023-03-06T04:31:13.578Z,1.65
2023-03-06T04:33:45.046Z,1.60
2023-03-06T04:36:42.639Z,1.52
2023-03-06T04:39:14.588Z,1.83
2023-03-06T04:41:46.059Z,1.90
2023-03-06T04:44:17.738Z,1.92
2023-03-06T04:46:49.228Z,2.00
2023-03-06T04:49:20.660Z,2.00
2023-03-06T04:51:52.113Z,2.10
2023-03-06T04:54:23.577Z,1.75
2023-03-06T04:56:54.961Z,1.90
2023-03-06T04:59:26.369Z,1.50
2023-03-06T05:01:57.867Z,1.38
2023-03-06T05:04:29.348Z,2.07
2023-03-06T05:07:00.799Z,1.75
2023-03-06T05:09:34.003Z,1.30
2023-03-06T05:12:05.521Z,1.70
2023-03-06T05:14:36.984Z,1.30
2023-03-06T05:17:08.400Z,1.35
2023-03-06T05:19:39.934Z,2.08
2023-03-06T05:22:11.451Z,1.63
2023-03-06T05:24:42.881Z,1.40
2023-03-06T05:27:16.830Z,1.60
2023-03-06T05:29:48.360Z,1.65
2023-03-06T05:32:19.947Z,1.60
2023-03-06T05:34:51.751Z,1.30
2023-03-06T05:37:23.491Z,1.60
2023-03-06T05:39:55.248Z,1.23
2023-03-06T05:42:28.564Z,1.30
2023-03-06T05:45:02.418Z,0.87
2023-03-06T05:47:33.921Z,0.70
2023-03-06T05:50:05.658Z,0.90
2023-03-06T05:52:38.796Z,0.60
2023-03-06T05:55:12.161Z,0.80
2023-03-06T05:57:43.619Z,0.70
2023-03-06T06:00:15.533Z,0.65
2023-03-06T06:02:47.401Z,0.52
2023-03-06T06:05:18.805Z,0.60
2023-03-06T06:07:50.224Z,0.80
2023-03-06T06:10:21.687Z,0.55
2023-03-06T06:12:53.125Z,0.80
2023-03-06T06:15:24.595Z,0.60
2023-03-06T06:17:57.013Z,0.57
2023-03-06T06:20:28.502Z,0.73
2023-03-06T06:22:59.942Z,0.60
2023-03-06T06:25:31.634Z,1.05
2023-03-06T06:28:03.907Z,0.60
2023-03-06T06:30:35.379Z,0.90
2023-03-06T06:33:06.878Z,0.80
2023-03-06T06:35:38.402Z,0.80
2023-03-06T06:38:09.866Z,0.75
2023-03-06T06:40:41.338Z,0.82
2023-03-06T06:43:12.789Z,0.80
2023-03-06T06:45:44.235Z,1.07
2023-03-06T06:48:17.737Z,0.70
2023-03-06T06:50:55.824Z,0.70
2023-03-06T06:53:28.261Z,0.90
2023-03-06T06:56:00.138Z,1.00
2023-03-06T06:58:31.600Z,0.57
2023-03-06T07:01:11.751Z,0.63
2023-03-06T07:03:43.350Z,0.80
2023-03-06T07:06:15.007Z,0.83
2023-03-06T07:08:46.467Z,1.20
2023-03-06T07:11:18.673Z,0.95
2023-03-06T07:13:50.268Z,0.90
2023-03-06T07:16:21.768Z,0.85
2023-03-06T07:18:53.303Z,0.82
2023-03-06T07:21:24.798Z,0.80
2023-03-06T07:23:56.284Z,0.95
2023-03-06T07:26:28.309Z,1.00
2023-03-06T07:29:00.087Z,1.00
2023-03-06T07:31:31.728Z,0.68
2023-03-06T07:34:05.051Z,1.08
2023-03-06T07:36:37.020Z,0.63
2023-03-06T07:39:09.405Z,0.90
2023-03-06T07:41:40.843Z,0.95
2023-03-06T07:44:12.293Z,0.88
2023-03-06T07:46:43.748Z,0.75
2023-03-06T07:49:15.431Z,1.30
2023-03-06T07:51:46.973Z,0.67
2023-03-06T07:54:18.483Z,0.70
2023-03-06T07:56:51.211Z,0.70
2023-03-06T07:59:22.665Z,0.80
2023-03-06T08:01:55.615Z,0.80
2023-03-06T08:04:28.983Z,1.05
2023-03-06T08:07:00.503Z,0.90
2023-03-06T08:09:31.942Z,0.68
2023-03-06T08:12:03.507Z,0.70
2023-03-06T08:14:35.544Z,0.80
2023-03-06T08:17:07.467Z,0.70
2023-03-06T08:19:38.955Z,0.80
2023-03-06T08:22:10.525Z,0.80
2023-03-06T08:24:41.976Z,0.90
2023-03-06T08:27:13.497Z,0.90
2023-03-06T08:29:44.957Z,0.70
2023-03-06T08:32:16.490Z,0.80
2023-03-06T08:34:48.000Z,0.70
2023-03-06T08:37:19.647Z,0.80
2023-03-06T08:39:51.168Z,0.70
2023-03-06T08:42:22.634Z,0.60
2023-03-06T08:44:54.072Z,0.80
2023-03-06T08:47:25.566Z,0.60
2023-03-06T08:49:58.813Z,0.80
2023-03-06T08:52:30.917Z,0.70
2023-03-06T08:55:02.520Z,0.70
2023-03-06T08:57:33.919Z,0.77
2023-03-06T09:00:06.495Z,0.98
2023-03-06T09:02:37.952Z,0.90
2023-03-06T09:05:09.720Z,0.88
2023-03-06T09:07:41.194Z,0.70
2023-03-06T09:10:17.864Z,0.50
2023-03-06T09:12:52.064Z,0.60
2023-03-06T09:15:25.505Z,0.70
2023-03-06T09:17:57.093Z,0.45
2023-03-06T09:20:28.723Z,0.60
2023-03-06T09:23:00.163Z,0.50
2023-03-06T09:25:31.616Z,0.50
2023-03-06T09:28:11.372Z,0.60
2023-03-06T09:30:43.633Z,0.57
2023-03-06T09:33:15.512Z,0.50
2023-03-06T09:35:51.664Z,0.70
2023-03-06T09:38:26.349Z,0.30
2023-03-06T09:40:57.761Z,0.77
2023-03-06T09:43:34.616Z,0.98
2023-03-06T09:46:13.522Z,0.73
2023-03-06T09:48:58.608Z,1.08
2023-03-06T09:51:45.767Z,0.90
2023-03-06T09:54:20.214Z,0.80
2023-03-06T09:56:51.639Z,1.00
2023-03-06T09:59:25.807Z,0.75
2023-03-06T10:02:11.611Z,1.10
2023-03-06T10:04:57.751Z,2.80
2023-03-06T10:07:54.017Z,4.22
2023-03-06T10:10:40.835Z,3.60
2023-03-06T10:13:27.065Z,3.78
2023-03-06T10:16:06.908Z,5.20
2023-03-06T10:18:39.301Z,6.07
2023-03-06T10:21:52.070Z,6.53
2023-03-06T10:24:35.442Z,7.40
2023-03-06T10:27:18.609Z,7.35
2023-03-06T10:30:11.347Z,7.25
2023-03-06T10:33:27.840Z,7.50
2023-03-06T10:35:59.374Z,7.40
2023-03-06T10:38:30.794Z,7.75
2023-03-06T10:41:12.022Z,6.93
2023-03-06T10:43:46.018Z,6.43
2023-03-06T10:46:29.065Z,6.68
2023-03-06T10:49:03.729Z,6.40
2023-03-06T10:51:35.413Z,6.30
2023-03-06T10:54:12.847Z,5.97
2023-03-06T10:56:46.737Z,6.00
2023-03-06T10:59:26.370Z,6.17
2023-03-06T11:02:14.065Z,5.43
2023-03-06T11:04:51.353Z,5.20
2023-03-06T11:07:26.084Z,4.57
2023-03-06T11:09:57.515Z,4.68
2023-03-06T11:12:31.975Z,4.20
2023-03-06T11:15:06.585Z,4.40
2023-03-06T11:17:49.533Z,4.90
2023-03-06T11:20:48.881Z,5.30
2023-03-06T11:23:37.835Z,5.63
2023-03-06T11:26:15.390Z,5.65
2023-03-06T11:29:19.462Z,5.80
2023-03-06T11:32:09.517Z,6.00
2023-03-06T11:34:54.644Z,5.80
2023-03-06T11:37:31.928Z,5.70
2023-03-06T11:40:36.353Z,5.28
2023-03-06T11:43:23.306Z,5.50
2023-03-06T11:46:02.046Z,5.90
2023-03-06T11:48:39.185Z,6.00
2023-03-06T11:51:26.884Z,6.40
2023-03-06T11:54:00.799Z,6.45
2023-03-06T11:56:49.015Z,6.40
2023-03-06T11:59:29.357Z,6.20
2023-03-06T12:02:25.081Z,5.28
2023-03-06T12:04:59.559Z,5.20
2023-03-06T12:07:35.039Z,5.67
2023-03-06T12:10:39.444Z,5.80
2023-03-06T12:13:26.816Z,5.72
2023-03-06T12:16:16.567Z,5.45
2023-03-06T12:19:09.204Z,6.53
2023-03-06T12:22:11.620Z,6.88
2023-03-06T12:24:55.306Z,6.43
2023-03-06T12:28:03.068Z,6.15
2023-03-06T12:31:09.025Z,6.32
2023-03-06T12:33:56.263Z,6.28
2023-03-06T12:37:04.772Z,6.28
2023-03-06T12:39:55.554Z,7.03
2023-03-06T12:42:33.118Z,6.60
2023-03-06T12:45:04.568Z,6.30
2023-03-06T12:47:42.217Z,6.40
2023-03-06T12:50:24.258Z,5.93
2023-03-06T12:53:07.961Z,5.47
2023-03-06T12:55:46.450Z,5.80
2023-03-06T12:58:30.103Z,5.50
2023-03-06T13:01:29.915Z,6.20
2023-03-06T13:04:44.341Z,5.72
2023-03-06T13:07:48.402Z,5.82
2023-03-06T13:10:28.874Z,5.50
2023-03-06T13:13:03.121Z,4.97
2023-03-06T13:15:41.907Z,5.30
2023-03-06T13:18:22.582Z,5.07
2023-03-06T13:20:55.319Z,5.45
2023-03-06T13:23:51.176Z,5.15
2023-03-06T13:26:25.491Z,6.05
2023-03-06T13:28:57.067Z,6.18
2023-03-06T13:31:34.521Z,6.78
2023-03-06T13:34:31.932Z,6.85
2023-03-06T13:37:18.522Z,6.82
2023-03-06T13:39:55.843Z,7.18
2023-03-06T13:42:34.095Z,6.13
2023-03-06T13:45:25.904Z,6.65
2023-03-06T13:48:21.390Z,7.28
2023-03-06T13:50:51.384Z,7.50
2023-03-06T13:53:30.072Z,10.35
2023-03-06T13:56:47.831Z,12.02
2023-03-06T13:59:22.082Z,11.73
2023-03-06T14:02:31.971Z,13.38
2023-03-06T14:05:11.865Z,13.70
2023-03-06T14:08:02.625Z,13.60
2023-03-06T14:10:36.505Z,13.25
2023-03-06T14:13:22.291Z,12.63
2023-03-06T14:15:55.581Z,11.73
2023-03-06T14:18:36.907Z,11.98
2023-03-06T14:21:13.538Z,10.30
2023-03-06T14:23:45.040Z,11.38
2023-03-06T14:26:22.558Z,11.45
2023-03-06T14:28:56.869Z,11.75
2023-03-06T14:31:34.573Z,12.23
2023-03-06T14:34:08.494Z,10.75
2023-03-06T14:36:45.442Z,8.10
2023-03-06T14:39:39.188Z,7.93
2023-03-06T14:42:25.170Z,6.50
2023-03-06T14:45:02.781Z,6.35
2023-03-06T14:47:36.761Z,6.03
2023-03-06T14:50:27.985Z,5.27
2023-03-06T14:53:03.408Z,4.00
2023-03-06T14:55:35.909Z,3.20
2023-03-06T14:58:13.684Z,3.40
2023-03-06T15:00:48.067Z,3.42
2023-03-06T15:03:25.054Z,3.50
2023-03-06T15:05:57.027Z,3.78
2023-03-06T15:08:34.589Z,3.50
2023-03-06T15:11:07.637Z,3.60
2023-03-06T15:13:39.100Z,4.45
2023-03-06T15:16:13.479Z,4.57
2023-03-06T15:19:01.529Z,4.53
2023-03-06T15:21:38.342Z,5.90
2023-03-06T15:24:31.099Z,7.75
2023-03-06T15:27:05.568Z,8.07
2023-03-06T15:29:38.935Z,7.70
2023-03-06T15:32:25.032Z,7.30
2023-03-06T15:35:24.287Z,8.32
2023-03-06T15:37:56.995Z,8.18
2023-03-06T15:40:30.549Z,9.15
2023-03-06T15:43:02.419Z,9.57
2023-03-06T15:45:34.887Z,9.85
2023-03-06T15:48:16.741Z,10.02
2023-03-06T15:50:48.217Z,9.95
2023-03-06T15:53:19.703Z,11.75
2023-03-06T15:55:52.559Z,12.98
2023-03-06T15:58:24.519Z,12.98
2023-03-06T16:00:56.060Z,13.95
2023-03-06T16:03:27.492Z,14.63
2023-03-06T16:05:58.898Z,14.65
2023-03-06T16:08:30.324Z,15.30
2023-03-06T16:11:01.845Z,16.13
2023-03-06T16:13:33.662Z,15.90
2023-03-06T16:16:05.469Z,15.85
2023-03-06T16:18:37.217Z,15.15
2023-03-06T16:21:08.644Z,15.73
2023-03-06T16:23:40.355Z,16.10
2023-03-06T16:26:30.530Z,16.17
2023-03-06T16:29:02.241Z,15.63
2023-03-06T16:31:33.792Z,15.23
2023-03-06T16:34:05.229Z,15.10
2023-03-06T16:36:36.670Z,15.88
2023-03-06T16:39:14.295Z,17.00
2023-03-06T16:41:45.785Z,17.05
2023-03-06T16:44:17.338Z,15.98
2023-03-06T16:46:49.830Z,16.55
2023-03-06T16:49:23.957Z,16.55
2023-03-06T16:51:55.482Z,17.40
2023-03-06T16:54:26.917Z,17.33
2023-03-06T16:56:58.392Z,18.08
2023-03-06T16:59:29.860Z,18.60
2023-03-06T17:02:01.316Z,19.52
2023-03-06T17:04:32.782Z,19.85
2023-03-06T17:07:04.678Z,19.58
2023-03-06T17:09:36.773Z,18.70
2023-03-06T17:12:08.615Z,19.92
2023-03-06T17:14:40.333Z,20.98
2023-03-06T17:17:11.779Z,19.50
2023-03-06T17:19:47.310Z,22.33
2023-03-06T17:22:20.247Z,20.15
2023-03-06T17:24:51.787Z,21.70
2023-03-06T17:27:23.233Z,21.45
2023-03-06T17:29:57.551Z,21.83
2023-03-06T17:32:29.245Z,21.33
2023-03-06T17:35:00.816Z,23.02
2023-03-06T17:37:32.292Z,22.20
2023-03-06T17:40:06.830Z,22.03
2023-03-06T17:42:38.294Z,21.30
2023-03-06T17:45:10.192Z,22.40
2023-03-06T17:47:41.737Z,21.67
2023-03-06T17:50:13.192Z,22.75
2023-03-06T17:52:44.636Z,22.35
2023-03-06T17:55:16.063Z,22.88
2023-03-06T17:57:47.468Z,22.75
2023-03-06T18:00:19.369Z,22.02
2023-03-06T18:02:50.803Z,23.77
2023-03-06T18:05:22.262Z,23.27
2023-03-06T18:07:53.746Z,24.50
2023-03-06T18:10:25.206Z,23.10
2023-03-06T18:12:56.639Z,23.58
2023-03-06T18:15:28.194Z,23.27
2023-03-06T18:17:59.648Z,23.23
2023-03-06T18:20:31.129Z,22.90
2023-03-06T18:23:02.559Z,24.08
2023-03-06T18:25:34.167Z,23.47
2023-03-06T18:28:05.624Z,24.50
2023-03-06T18:30:41.072Z,23.10
2023-03-06T18:33:12.473Z,25.13
2023-03-06T18:35:43.974Z,22.83
2023-03-06T18:38:15.451Z,24.33
2023-03-06T18:40:46.908Z,24.20
2023-03-06T18:43:18.353Z,23.00
2023-03-06T18:45:54.499Z,24.00
2023-03-06T18:48:25.976Z,22.55
2023-03-06T18:51:02.738Z,23.25
2023-03-06T18:53:34.940Z,23.85
2023-03-06T18:56:08.103Z,23.67
2023-03-06T18:58:39.532Z,23.92
2023-03-06T19:01:11.716Z,24.05
2023-03-06T19:03:43.328Z,23.50
2023-03-06T19:06:16.507Z,21.65
2023-03-06T19:08:47.967Z,22.45
2023-03-06T19:11:19.440Z,22.50
2023-03-06T19:13:50.858Z,20.73
2023-03-06T19:16:26.036Z,21.65
2023-03-06T19:18:59.107Z,19.63
2023-03-06T19:21:30.541Z,20.20
2023-03-06T19:24:02.296Z,19.42
2023-03-06T19:26:33.708Z,18.33
2023-03-06T19:29:05.120Z,19.20
2023-03-06T19:31:36.625Z,18.83
2023-03-06T19:34:08.060Z,18.92
2023-03-06T19:36:39.500Z,20.02
2023-03-06T19:39:10.986Z,20.05
2023-03-06T19:41:42.416Z,20.27
2023-03-06T19:44:13.863Z,19.80
2023-03-06T19:46:45.359Z,19.95
2023-03-06T19:49:16.961Z,18.42
2023-03-06T19:51:48.470Z,14.80
2023-03-06T19:54:19.961Z,15.05
2023-03-06T19:56:51.491Z,14.70
2023-03-06T19:59:22.871Z,11.45
2023-03-06T20:01:54.372Z,10.13
2023-03-06T20:04:25.989Z,8.93
2023-03-06T20:06:57.481Z,6.88
2023-03-06T20:09:28.994Z,4.30
2023-03-06T20:12:00.480Z,4.10
2023-03-06T20:14:31.891Z,3.37
2023-03-06T20:17:03.510Z,3.60
2023-03-06T20:19:35.023Z,3.80
2023-03-06T20:22:06.530Z,3.22
2023-03-06T20:24:38.170Z,3.83
2023-03-06T20:27:09.625Z,3.87
2023-03-06T20:29:41.054Z,3.70
2023-03-06T20:32:13.281Z,4.60
2023-03-06T20:34:44.768Z,3.92
2023-03-06T20:37:16.218Z,4.38
2023-03-06T20:39:47.771Z,4.00
2023-03-06T20:42:19.201Z,4.53
2023-03-06T20:44:50.629Z,4.30
2023-03-06T20:47:22.076Z,3.38
2023-03-06T20:49:53.571Z,2.13
2023-03-06T20:52:24.975Z,1.67
2023-03-06T20:54:56.401Z,2.10
2023-03-06T20:57:27.881Z,2.60
2023-03-06T20:59:59.283Z,2.47
2023-03-06T21:02:30.806Z,2.33
2023-03-06T21:05:02.259Z,2.50
2023-03-06T21:07:33.735Z,2.50
2023-03-06T21:10:05.793Z,2.25
2023-03-06T21:12:37.288Z,2.40
2023-03-06T21:15:09.011Z,2.20
2023-03-06T21:17:40.462Z,2.30
2023-03-06T21:20:12.119Z,2.38
2023-03-06T21:22:43.602Z,2.30
2023-03-06T21:25:15.068Z,1.83
2023-03-06T21:27:46.495Z,2.38
2023-03-06T21:30:18.051Z,2.20
2023-03-06T21:32:51.239Z,2.05
2023-03-06T21:35:22.779Z,2.10
2023-03-06T21:37:54.202Z,2.23
2023-03-06T21:40:25.651Z,1.65
2023-03-06T21:42:57.115Z,2.30
2023-03-06T21:45:28.625Z,2.58
2023-03-06T21:48:00.693Z,2.58
2023-03-06T21:50:32.151Z,2.60
2023-03-06T21:53:03.738Z,2.78
2023-03-06T21:55:38.741Z,3.25
2023-03-06T21:58:10.187Z,3.17
2023-03-06T22:00:41.622Z,3.27
2023-03-06T22:03:13.056Z,3.33
2023-03-06T22:05:44.473Z,3.60
2023-03-06T22:08:15.966Z,3.70
2023-03-06T22:10:48.581Z,3.70
2023-03-06T22:13:20.009Z,3.72
2023-03-06T22:15:53.773Z,2.95
2023-03-06T22:18:25.177Z,2.75
2023-03-06T22:20:56.656Z,2.28
2023-03-06T22:23:28.104Z,2.20
2023-03-06T22:26:07.991Z,1.92
2023-03-06T22:28:40.566Z,2.00
2023-03-06T22:31:21.829Z,1.83
2023-03-06T22:33:54.378Z,1.95
2023-03-06T22:36:26.798Z,2.13
2023-03-06T22:39:02.283Z,1.95
2023-03-06T22:41:33.784Z,1.93
2023-03-06T22:44:05.256Z,2.58
2023-03-06T22:46:36.670Z,2.73
2023-03-06T22:49:10.838Z,2.97
2023-03-06T22:51:42.700Z,3.22
2023-03-06T22:54:14.122Z,3.10
2023-03-06T22:56:45.598Z,3.95
2023-03-06T22:59:17.065Z,3.67
2023-03-06T23:01:48.572Z,3.88
2023-03-06T23:04:20.220Z,4.00
2023-03-06T23:06:51.779Z,3.50
2023-03-06T23:09:23.244Z,3.97
2023-03-06T23:11:54.700Z,4.20
2023-03-06T23:14:26.215Z,3.75
2023-03-06T23:16:57.721Z,3.88
2023-03-06T23:19:29.137Z,3.90
2023-03-06T23:22:00.548Z,4.30
2023-03-06T23:24:32.000Z,4.03
2023-03-06T23:27:03.773Z,3.90
2023-03-06T23:29:35.257Z,4.28
2023-03-06T23:32:07.089Z,4.33
2023-03-06T23:34:38.595Z,4.00
2023-03-06T23:37:10.049Z,4.43
2023-03-06T23:39:41.480Z,4.50
2023-03-06T23:42:12.920Z,4.70
2023-03-06T23:44:44.338Z,4.95
2023-03-06T23:47:15.909Z,4.57
2023-03-06T23:49:47.318Z,5.20
2023-03-06T23:52:18.734Z,5.50
2023-03-06T23:54:50.321Z,4.63
2023-03-06T23:57:21.833Z,4.57
2023-03-06T23:59:53.255Z,4.35
